Elizabethtown, New York
Current Conditions -  °F | °C
As of 6:54 PM on Sunday 25 Jan 2015 (Local Time) from KBTV Reporting Station
Clear Clear  
Wind Chill: -3°   Ceiling: Unl
Heat Index:   Visibility: 10mi
Dew Point: -4°   Wind: 7mph
Humidity: 58%   Direction: 40°NE
Pressure: 30.01"   Gusts: NA
Location:  44.22°N, 73.59°W
Report Text: KBTV 252354Z 04006KT 10SM CLR M13/M20 A3001 RMK AO2 SLP169 4/002 T11331200 11094 21133 53040
Loading
Personal Weather Stations






























Interactive Weather Map New forecast layout! Learn more

10-Day Weather Forecast

Advertisements
Track Severe Weather on mobile